createdAt,value
2022-10-13T00:00:58.903Z,13.60
2022-10-13T00:03:25.959Z,13.60
2022-10-13T00:05:52.941Z,13.60
2022-10-13T00:08:21.657Z,13.50
2022-10-13T00:10:50.703Z,13.50
2022-10-13T00:13:18.551Z,13.50
2022-10-13T00:15:46.841Z,13.50
2022-10-13T00:18:14.635Z,13.50
2022-10-13T00:20:47.335Z,13.50
2022-10-13T00:23:14.770Z,13.50
2022-10-13T00:25:43.532Z,13.50
2022-10-13T00:28:11.278Z,13.50
2022-10-13T00:30:38.703Z,13.50
2022-10-13T00:33:05.657Z,13.50
2022-10-13T00:35:46.862Z,13.50
2022-10-13T00:38:14.215Z,13.60
2022-10-13T00:40:45.184Z,13.50
2022-10-13T00:43:23.336Z,13.60
2022-10-13T00:45:50.752Z,13.60
2022-10-13T00:48:25.013Z,13.70
2022-10-13T00:50:52.809Z,13.80
2022-10-13T00:53:23.912Z,13.70
2022-10-13T00:55:52.540Z,13.80
2022-10-13T00:58:23.677Z,13.90
2022-10-13T01:00:52.705Z,13.80
2022-10-13T01:03:21.195Z,13.70
2022-10-13T01:05:50.001Z,13.70
2022-10-13T01:08:19.079Z,13.60
2022-10-13T01:10:55.585Z,13.70
2022-10-13T01:13:40.050Z,13.80
2022-10-13T01:16:19.359Z,13.60
2022-10-13T01:18:55.841Z,13.40
2022-10-13T01:21:39.119Z,13.60
2022-10-13T01:24:41.523Z,13.90
2022-10-13T01:27:27.601Z,14.00
2022-10-13T01:30:06.032Z,14.00
2022-10-13T01:32:51.093Z,14.20
2022-10-13T01:35:26.440Z,14.10
2022-10-13T01:38:06.944Z,14.00
2022-10-13T01:40:48.372Z,13.90
2022-10-13T01:43:29.482Z,13.90
2022-10-13T01:46:12.390Z,13.90
2022-10-13T01:48:42.690Z,13.90
2022-10-13T01:51:13.460Z,13.90
2022-10-13T01:53:42.500Z,13.80
2022-10-13T01:56:09.410Z,13.60
2022-10-13T01:58:37.864Z,13.60
2022-10-13T02:01:21.038Z,13.50
2022-10-13T02:03:59.889Z,13.40
2022-10-13T02:06:41.000Z,13.30
2022-10-13T02:09:41.880Z,13.30
2022-10-13T02:12:19.392Z,13.20
2022-10-13T02:14:48.263Z,13.20
2022-10-13T02:17:16.058Z,13.20
2022-10-13T02:19:43.445Z,13.20
2022-10-13T02:22:13.563Z,13.30
2022-10-13T02:24:40.753Z,13.10
2022-10-13T02:27:08.515Z,13.20
2022-10-13T02:29:48.084Z,13.00
2022-10-13T02:32:14.752Z,13.10
2022-10-13T02:34:41.394Z,13.10
2022-10-13T02:37:08.081Z,13.30
2022-10-13T02:39:35.070Z,13.30
2022-10-13T02:42:01.698Z,13.20
2022-10-13T02:44:28.374Z,13.20
2022-10-13T02:46:55.405Z,13.20
2022-10-13T02:49:22.058Z,13.30
2022-10-13T02:51:49.141Z,13.20
2022-10-13T02:54:16.236Z,13.20
2022-10-13T02:56:43.214Z,13.20
2022-10-13T02:59:10.355Z,13.10
2022-10-13T03:01:41.214Z,13.00
2022-10-13T03:04:09.159Z,13.00
2022-10-13T03:06:35.951Z,13.00
2022-10-13T03:09:03.892Z,12.80
2022-10-13T03:11:31.049Z,13.00
2022-10-13T03:13:57.881Z,13.10
2022-10-13T03:16:25.009Z,13.20
2022-10-13T03:18:51.977Z,13.10
2022-10-13T03:21:19.013Z,13.10
2022-10-13T03:23:46.051Z,13.10
2022-10-13T03:26:13.138Z,13.00
2022-10-13T03:28:41.048Z,13.00
2022-10-13T03:31:10.907Z,12.90
2022-10-13T03:33:37.566Z,13.00
2022-10-13T03:36:05.929Z,12.90
2022-10-13T03:38:34.245Z,12.90
2022-10-13T03:41:13.059Z,12.90
2022-10-13T03:43:41.129Z,12.90
2022-10-13T03:46:10.550Z,12.90
2022-10-13T03:48:38.097Z,12.90
2022-10-13T03:51:10.138Z,12.90
2022-10-13T03:53:36.939Z,12.80
2022-10-13T03:56:05.147Z,12.90
2022-10-13T03:58:32.503Z,12.90
2022-10-13T04:01:04.745Z,12.90
2022-10-13T04:03:34.314Z,12.90
2022-10-13T04:06:06.015Z,13.00
2022-10-13T04:08:33.985Z,12.90
2022-10-13T04:11:04.166Z,12.90
2022-10-13T04:13:31.147Z,13.00
2022-10-13T04:16:03.319Z,13.00
2022-10-13T04:18:31.012Z,13.00
2022-10-13T04:20:57.718Z,13.00
2022-10-13T04:23:24.722Z,12.90
2022-10-13T04:25:51.476Z,12.90
2022-10-13T04:28:18.561Z,12.90
2022-10-13T04:30:49.233Z,12.90
2022-10-13T04:33:17.063Z,12.80
2022-10-13T04:35:44.916Z,12.80
2022-10-13T04:38:11.565Z,12.80
2022-10-13T04:40:38.310Z,12.80
2022-10-13T04:43:05.246Z,12.90
2022-10-13T04:45:31.885Z,12.90
2022-10-13T04:48:00.205Z,12.90
2022-10-13T04:50:27.231Z,12.90
2022-10-13T04:52:54.261Z,12.90
2022-10-13T04:55:20.941Z,12.80
2022-10-13T04:57:47.950Z,12.90
2022-10-13T05:00:14.820Z,12.90
2022-10-13T05:02:41.657Z,12.80
2022-10-13T05:05:10.033Z,12.90
2022-10-13T05:07:37.157Z,13.00
2022-10-13T05:10:04.591Z,13.00
2022-10-13T05:12:31.446Z,13.00
2022-10-13T05:14:58.870Z,13.00
2022-10-13T05:17:25.582Z,13.10
2022-10-13T05:19:52.642Z,13.10
2022-10-13T05:22:20.019Z,13.20
2022-10-13T05:24:47.153Z,13.20
2022-10-13T05:27:14.355Z,13.20
2022-10-13T05:29:41.407Z,13.30
2022-10-13T05:32:08.502Z,13.10
2022-10-13T05:34:35.362Z,13.10
2022-10-13T05:37:02.423Z,13.10
2022-10-13T05:39:29.397Z,13.00
2022-10-13T05:41:56.111Z,13.00
2022-10-13T05:44:24.242Z,13.00
2022-10-13T05:46:51.027Z,13.00
2022-10-13T05:49:18.097Z,13.10
2022-10-13T05:51:52.772Z,13.10
2022-10-13T05:54:22.897Z,13.10
2022-10-13T05:57:16.208Z,13.20
2022-10-13T05:59:49.843Z,13.20
2022-10-13T06:02:19.042Z,13.10
2022-10-13T06:04:52.079Z,13.00
2022-10-13T06:07:19.600Z,13.00
2022-10-13T06:09:46.752Z,13.00
2022-10-13T06:12:13.586Z,13.00
2022-10-13T06:14:40.633Z,12.90
2022-10-13T06:17:07.917Z,12.90
2022-10-13T06:19:34.814Z,12.90
2022-10-13T06:22:03.751Z,13.00
2022-10-13T06:24:30.944Z,13.10
2022-10-13T06:26:58.015Z,13.10
2022-10-13T06:29:25.021Z,13.10
2022-10-13T06:31:52.020Z,13.20
2022-10-13T06:34:19.038Z,13.10
2022-10-13T06:36:45.774Z,13.10
2022-10-13T06:39:13.091Z,13.10
2022-10-13T06:41:39.787Z,13.20
2022-10-13T06:44:06.856Z,13.20
2022-10-13T06:46:33.944Z,13.20
2022-10-13T06:49:00.943Z,13.20
2022-10-13T06:51:28.068Z,13.20
2022-10-13T06:53:56.729Z,13.20
2022-10-13T06:56:23.420Z,13.20
2022-10-13T06:58:50.080Z,13.10
2022-10-13T07:01:16.787Z,13.10
2022-10-13T07:03:43.489Z,13.20
2022-10-13T07:06:10.779Z,13.10
2022-10-13T07:08:37.454Z,13.10
2022-10-13T07:11:15.975Z,13.20
2022-10-13T07:13:46.409Z,13.30
2022-10-13T07:16:14.696Z,13.40
2022-10-13T07:18:41.372Z,13.40
2022-10-13T07:21:08.087Z,13.40
2022-10-13T07:23:34.723Z,13.40
2022-10-13T07:26:01.842Z,13.40
2022-10-13T07:28:28.610Z,13.30
2022-10-13T07:30:56.397Z,13.30
2022-10-13T07:33:23.040Z,13.40
2022-10-13T07:35:49.691Z,13.40
2022-10-13T07:38:16.478Z,13.30
2022-10-13T07:40:43.162Z,13.30
2022-10-13T07:43:10.023Z,13.30
2022-10-13T07:45:36.678Z,13.30
2022-10-13T07:48:03.456Z,13.40
2022-10-13T07:50:30.205Z,13.30
2022-10-13T07:52:56.872Z,13.20
2022-10-13T07:55:23.592Z,13.30
2022-10-13T07:57:50.282Z,13.40
2022-10-13T08:00:17.173Z,13.60
2022-10-13T08:02:43.864Z,13.70
2022-10-13T08:05:10.608Z,13.80
2022-10-13T08:07:39.207Z,13.80
2022-10-13T08:10:08.451Z,13.90
2022-10-13T08:12:36.531Z,13.90
2022-10-13T08:15:06.224Z,14.10
2022-10-13T08:17:33.578Z,14.30
2022-10-13T08:20:00.281Z,14.40
2022-10-13T08:22:28.371Z,14.40
2022-10-13T08:24:55.971Z,14.30
2022-10-13T08:27:32.836Z,14.40
2022-10-13T08:30:09.922Z,14.50
2022-10-13T08:32:36.604Z,14.60
2022-10-13T08:35:04.315Z,14.70
2022-10-13T08:37:31.097Z,14.90
2022-10-13T08:39:57.858Z,15.00
2022-10-13T08:42:24.560Z,15.10
2022-10-13T08:47:51.432Z,14.90
2022-10-13T08:50:21.446Z,15.00
2022-10-13T08:53:01.560Z,15.00
2022-10-13T08:55:36.714Z,15.00
2022-10-13T08:58:12.298Z,15.00
2022-10-13T09:00:39.055Z,15.00
2022-10-13T09:03:22.808Z,15.00
2022-10-13T09:06:07.150Z,15.00
2022-10-13T09:08:40.730Z,14.90
2022-10-13T09:11:10.221Z,14.90
2022-10-13T09:13:37.017Z,14.90
2022-10-13T09:16:03.836Z,15.00
2022-10-13T09:18:32.565Z,15.20
2022-10-13T09:21:10.462Z,15.30
2022-10-13T09:23:41.030Z,15.30
2022-10-13T09:26:15.733Z,15.40
2022-10-13T09:28:42.607Z,15.30
2022-10-13T09:31:13.237Z,15.30
2022-10-13T09:33:41.205Z,15.40
2022-10-13T09:36:16.012Z,15.40
2022-10-13T09:39:12.612Z,15.40
2022-10-13T09:41:40.716Z,15.40
2022-10-13T09:44:17.571Z,15.40
2022-10-13T09:46:51.525Z,15.50
2022-10-13T09:49:28.280Z,15.60
2022-10-13T09:52:12.018Z,15.60
2022-10-13T09:54:58.578Z,15.50
2022-10-13T09:57:51.497Z,15.50
2022-10-13T10:00:26.861Z,15.50
2022-10-13T10:03:22.221Z,15.50
2022-10-13T10:05:56.331Z,15.40
2022-10-13T10:09:07.614Z,15.30
2022-10-13T10:11:40.501Z,15.30
2022-10-13T10:14:28.779Z,15.20
2022-10-13T10:17:33.087Z,15.10
2022-10-13T10:20:21.668Z,14.90
2022-10-13T10:22:59.608Z,14.80
2022-10-13T10:25:34.156Z,14.80
2022-10-13T10:28:11.310Z,14.90
2022-10-13T10:30:48.298Z,14.70
2022-10-13T10:33:29.972Z,14.60
2022-10-13T10:36:07.349Z,14.40
2022-10-13T10:39:00.033Z,14.30
2022-10-13T10:41:41.333Z,14.20
2022-10-13T10:44:12.673Z,14.30
2022-10-13T10:46:47.035Z,14.40
2022-10-13T10:49:30.830Z,14.40
2022-10-13T10:51:59.735Z,14.40
2022-10-13T10:54:39.465Z,14.50
2022-10-13T10:57:13.381Z,14.60
2022-10-13T10:59:55.358Z,14.90
2022-10-13T11:03:07.422Z,14.90
2022-10-13T11:06:12.125Z,15.30
2022-10-13T11:08:42.586Z,15.60
2022-10-13T11:11:39.845Z,15.90
2022-10-13T11:14:06.456Z,16.10
2022-10-13T11:16:34.750Z,16.40
2022-10-13T11:19:05.849Z,16.40
2022-10-13T11:22:12.563Z,16.40
2022-10-13T11:24:41.831Z,16.30
2022-10-13T11:27:09.037Z,16.40
2022-10-13T11:29:48.895Z,16.50
2022-10-13T11:32:30.492Z,16.50
2022-10-13T11:34:59.406Z,16.40
2022-10-13T11:38:06.744Z,16.30
2022-10-13T11:41:07.602Z,16.20
2022-10-13T11:43:59.983Z,16.10
2022-10-13T11:47:00.136Z,16.00
2022-10-13T11:49:54.385Z,16.10
2022-10-13T11:52:59.765Z,16.10
2022-10-13T11:55:53.424Z,15.90
2022-10-13T11:58:23.743Z,15.70
2022-10-13T12:01:03.071Z,15.70
2022-10-13T12:03:34.842Z,15.60
2022-10-13T12:06:07.708Z,15.80
2022-10-13T12:08:36.411Z,16.00
2022-10-13T12:11:07.478Z,16.20
2022-10-13T12:13:36.008Z,16.20
2022-10-13T12:16:08.381Z,16.20
2022-10-13T12:18:38.933Z,16.40
2022-10-13T12:21:16.331Z,16.00
2022-10-13T12:23:43.374Z,15.70
2022-10-13T12:26:19.625Z,15.80
2022-10-13T12:28:58.238Z,15.80
2022-10-13T12:31:47.082Z,15.50
2022-10-13T12:34:34.185Z,15.40
2022-10-13T12:37:33.255Z,15.00
2022-10-13T12:40:01.253Z,15.10
2022-10-13T12:42:34.681Z,14.90
2022-10-13T12:45:02.287Z,15.00
2022-10-13T12:47:41.113Z,15.00
2022-10-13T12:50:25.793Z,15.10
2022-10-13T12:53:08.736Z,15.00
2022-10-13T12:55:47.479Z,15.00
2022-10-13T12:58:24.175Z,15.10
2022-10-13T13:01:16.719Z,15.10
2022-10-13T13:03:44.483Z,15.30
2022-10-13T13:06:13.863Z,15.40
2022-10-13T13:08:42.717Z,15.50
2022-10-13T13:11:34.356Z,15.50
2022-10-13T13:14:38.707Z,15.80
2022-10-13T13:17:08.517Z,16.00
2022-10-13T13:19:36.059Z,16.00
2022-10-13T13:22:04.253Z,16.00
2022-10-13T13:24:39.921Z,16.10
2022-10-13T13:27:20.338Z,16.10
2022-10-13T13:29:47.537Z,15.80
2022-10-13T13:32:16.844Z,15.90
2022-10-13T13:34:44.897Z,15.90
2022-10-13T13:37:15.069Z,15.70
2022-10-13T13:39:41.678Z,15.70
2022-10-13T13:42:14.031Z,15.90
2022-10-13T13:44:40.737Z,15.80
2022-10-13T13:47:19.142Z,15.80
2022-10-13T13:49:46.827Z,15.80
2022-10-13T13:52:13.758Z,15.70
2022-10-13T13:54:40.437Z,15.60
2022-10-13T13:57:07.423Z,15.60
2022-10-13T13:59:34.217Z,15.70
2022-10-13T14:02:01.127Z,15.90
2022-10-13T14:04:27.875Z,16.00
2022-10-13T14:06:54.505Z,16.10
2022-10-13T14:09:21.151Z,16.00
2022-10-13T14:11:47.805Z,16.20
2022-10-13T14:14:14.710Z,16.20
2022-10-13T14:16:41.614Z,16.00
2022-10-13T14:19:08.852Z,15.80
2022-10-13T14:21:36.329Z,15.80
2022-10-13T14:24:03.745Z,15.70
2022-10-13T14:26:30.850Z,15.70
2022-10-13T14:28:58.257Z,15.70
2022-10-13T14:31:25.136Z,15.70
2022-10-13T14:33:54.249Z,15.60
2022-10-13T14:36:21.225Z,15.60
2022-10-13T14:38:47.930Z,15.50
2022-10-13T14:41:16.995Z,15.50
2022-10-13T14:43:43.932Z,15.50
2022-10-13T14:46:12.697Z,15.30
2022-10-13T14:48:39.712Z,15.20
2022-10-13T14:51:07.724Z,15.20
2022-10-13T14:53:36.017Z,15.30
2022-10-13T14:56:04.102Z,15.30
2022-10-13T14:58:30.752Z,15.30
2022-10-13T15:00:57.466Z,15.30
2022-10-13T15:03:24.228Z,15.20
2022-10-13T15:05:50.874Z,15.10
2022-10-13T15:08:17.525Z,15.20
2022-10-13T15:10:45.203Z,15.10
2022-10-13T15:13:12.308Z,15.10
2022-10-13T15:15:46.901Z,15.10
2022-10-13T15:18:14.534Z,15.10
2022-10-13T15:20:46.520Z,15.00
2022-10-13T15:23:15.582Z,15.00
2022-10-13T15:25:55.972Z,15.10
2022-10-13T15:28:24.354Z,15.10
2022-10-13T15:30:51.344Z,15.10
2022-10-13T15:33:19.370Z,15.00
2022-10-13T15:35:50.376Z,15.00
2022-10-13T15:38:18.615Z,15.00
2022-10-13T15:40:45.625Z,14.90
2022-10-13T15:43:12.432Z,15.10
2022-10-13T15:45:40.129Z,14.90
2022-10-13T15:48:10.217Z,14.90
2022-10-13T15:50:40.641Z,15.00
2022-10-13T15:53:08.419Z,14.90
2022-10-13T15:55:35.219Z,14.90
2022-10-13T15:58:02.851Z,14.90
2022-10-13T16:00:29.502Z,15.00
2022-10-13T16:02:56.217Z,15.10
2022-10-13T16:05:22.977Z,15.20
2022-10-13T16:07:49.862Z,15.10
2022-10-13T16:10:16.727Z,15.00
2022-10-13T16:12:48.533Z,15.00
2022-10-13T16:15:18.056Z,15.00
2022-10-13T16:17:46.248Z,14.90
2022-10-13T16:20:14.234Z,14.90
2022-10-13T16:22:40.900Z,14.90
2022-10-13T16:25:09.078Z,15.00
2022-10-13T16:27:36.919Z,15.00
2022-10-13T16:30:06.691Z,14.90
2022-10-13T16:32:38.786Z,14.90
2022-10-13T16:35:06.860Z,15.00
2022-10-13T16:37:33.924Z,15.00
2022-10-13T16:40:00.585Z,15.00
2022-10-13T16:42:28.230Z,15.00
2022-10-13T16:44:54.854Z,14.80
2022-10-13T16:47:21.684Z,14.70
2022-10-13T16:49:48.535Z,14.70
2022-10-13T16:52:15.317Z,14.60
2022-10-13T16:54:41.982Z,14.60
2022-10-13T16:57:10.667Z,14.70
2022-10-13T16:59:38.255Z,14.60
2022-10-13T17:02:04.909Z,14.70
2022-10-13T17:04:31.641Z,14.60
2022-10-13T17:06:59.309Z,14.50
2022-10-13T17:09:26.156Z,14.60
2022-10-13T17:11:54.338Z,14.60
2022-10-13T17:14:20.949Z,14.50
2022-10-13T17:16:47.690Z,14.60
2022-10-13T17:19:15.329Z,14.60
2022-10-13T17:21:43.212Z,14.60
2022-10-13T17:24:09.881Z,14.70
2022-10-13T17:26:37.633Z,14.70
2022-10-13T17:29:05.372Z,14.70
2022-10-13T17:31:32.008Z,14.70
2022-10-13T17:33:59.570Z,14.60
2022-10-13T17:36:28.257Z,14.70
2022-10-13T17:38:56.227Z,14.50
2022-10-13T17:41:24.155Z,14.50
2022-10-13T17:43:52.125Z,14.50
2022-10-13T17:46:36.271Z,14.60
2022-10-13T17:49:07.658Z,14.70
2022-10-13T17:51:34.824Z,14.60
2022-10-13T17:54:01.648Z,14.80
2022-10-13T17:56:29.986Z,14.70
2022-10-13T17:58:57.078Z,14.70
2022-10-13T18:01:34.650Z,14.70
2022-10-13T18:04:04.815Z,14.70
2022-10-13T18:06:38.706Z,14.60
2022-10-13T18:09:13.668Z,14.70
2022-10-13T18:11:47.070Z,14.60
2022-10-13T18:14:22.491Z,14.70
2022-10-13T18:16:52.217Z,14.70
2022-10-13T18:19:19.695Z,14.70
2022-10-13T18:21:47.977Z,14.70
2022-10-13T18:24:20.408Z,14.60
2022-10-13T18:26:59.117Z,14.50
2022-10-13T18:29:59.525Z,14.60
2022-10-13T18:32:26.377Z,14.60
2022-10-13T18:34:56.184Z,14.70
2022-10-13T18:37:25.028Z,14.70
2022-10-13T18:39:51.972Z,14.70
2022-10-13T18:42:19.866Z,14.80
2022-10-13T18:44:46.532Z,14.70
2022-10-13T18:47:13.608Z,14.80
2022-10-13T18:49:40.658Z,14.80
2022-10-13T18:52:07.687Z,14.80
2022-10-13T18:54:34.721Z,14.70
2022-10-13T18:57:01.776Z,14.70
2022-10-13T18:59:28.884Z,14.70
2022-10-13T19:01:56.023Z,14.80
2022-10-13T19:04:22.933Z,14.80
2022-10-13T19:06:50.012Z,14.80
2022-10-13T19:09:17.401Z,14.70
2022-10-13T19:11:44.353Z,14.70
2022-10-13T19:14:12.649Z,14.70
2022-10-13T19:16:41.682Z,14.80
2022-10-13T19:19:09.160Z,14.90
2022-10-13T19:21:38.672Z,14.80
2022-10-13T19:24:17.453Z,14.80
2022-10-13T19:26:46.435Z,14.80
2022-10-13T19:29:15.995Z,14.80
2022-10-13T19:31:43.378Z,14.80
2022-10-13T19:34:11.922Z,14.90
2022-10-13T19:36:44.358Z,14.90
2022-10-13T19:39:20.751Z,15.00
2022-10-13T19:41:48.845Z,14.90
2022-10-13T19:44:17.343Z,14.70
2022-10-13T19:46:45.733Z,14.80
2022-10-13T19:49:15.602Z,14.90
2022-10-13T19:51:43.647Z,15.00
2022-10-13T19:54:11.274Z,14.90
2022-10-13T19:56:38.914Z,14.90
2022-10-13T19:59:08.230Z,14.80
2022-10-13T20:01:40.980Z,14.90
2022-10-13T20:04:08.805Z,15.00
2022-10-13T20:06:36.701Z,15.00
2022-10-13T20:09:05.557Z,15.10
2022-10-13T20:11:32.425Z,14.90
2022-10-13T20:13:59.257Z,14.90
2022-10-13T20:16:26.396Z,14.90
2022-10-13T20:18:58.545Z,15.00
2022-10-13T20:21:26.836Z,15.00
2022-10-13T20:23:54.362Z,15.00
2022-10-13T20:26:21.245Z,15.00
2022-10-13T20:28:49.625Z,14.90
2022-10-13T20:31:18.428Z,14.80
2022-10-13T20:33:47.015Z,14.80
2022-10-13T20:36:16.224Z,14.80
2022-10-13T20:38:44.049Z,14.70
2022-10-13T20:41:20.789Z,14.70
2022-10-13T20:43:49.505Z,14.70
2022-10-13T20:46:19.360Z,14.80
2022-10-13T20:51:36.358Z,14.80
2022-10-13T20:54:03.250Z,14.80
2022-10-13T20:56:30.232Z,14.80
2022-10-13T20:59:02.959Z,14.90
2022-10-13T21:01:29.713Z,14.80
2022-10-13T21:03:56.801Z,14.80
2022-10-13T21:06:25.026Z,15.00
2022-10-13T21:08:52.607Z,15.00
2022-10-13T21:11:20.753Z,15.00
2022-10-13T21:13:48.774Z,15.00
2022-10-13T21:16:21.366Z,14.90
2022-10-13T21:18:51.021Z,14.90
2022-10-13T21:21:21.112Z,14.80
2022-10-13T21:23:53.077Z,14.80
2022-10-13T21:26:22.123Z,14.80
2022-10-13T21:28:50.087Z,14.90
2022-10-13T21:31:21.781Z,14.80
2022-10-13T21:33:49.508Z,14.90
2022-10-13T21:36:19.574Z,14.90
2022-10-13T21:38:47.575Z,14.90
2022-10-13T21:41:15.137Z,14.90
2022-10-13T21:43:42.158Z,14.90
2022-10-13T21:46:17.121Z,14.90
2022-10-13T21:48:45.516Z,14.90
2022-10-13T21:51:17.889Z,15.00
2022-10-13T21:53:55.256Z,15.00
2022-10-13T21:56:25.618Z,15.00
2022-10-13T21:58:52.951Z,15.10
2022-10-13T22:01:20.551Z,15.00
2022-10-13T22:03:48.696Z,15.10
2022-10-13T22:06:19.116Z,15.10
2022-10-13T22:08:48.939Z,15.00
2022-10-13T22:11:16.767Z,15.00
2022-10-13T22:13:44.058Z,15.00
2022-10-13T22:16:13.160Z,14.90
2022-10-13T22:18:39.937Z,15.00
2022-10-13T22:21:16.961Z,15.00
2022-10-13T22:23:44.880Z,15.10
2022-10-13T22:26:12.960Z,15.20
2022-10-13T22:28:40.099Z,15.20
2022-10-13T22:31:12.366Z,15.20
2022-10-13T22:33:41.022Z,15.10
2022-10-13T22:36:19.298Z,15.10
2022-10-13T22:38:47.144Z,15.20
2022-10-13T22:41:15.046Z,15.20
2022-10-13T22:43:46.666Z,15.20
2022-10-13T22:46:18.060Z,15.20
2022-10-13T22:48:45.346Z,15.10
2022-10-13T22:51:16.196Z,15.00
2022-10-13T22:53:44.336Z,15.00
2022-10-13T22:56:17.601Z,15.00
2022-10-13T22:58:48.339Z,15.00
2022-10-13T23:01:15.924Z,15.00
2022-10-13T23:03:46.201Z,14.90
2022-10-13T23:06:15.137Z,14.90
2022-10-13T23:08:42.240Z,14.80
2022-10-13T23:11:09.558Z,14.90
2022-10-13T23:13:36.876Z,14.90
2022-10-13T23:16:15.588Z,15.00
2022-10-13T23:18:43.290Z,15.00
2022-10-13T23:21:17.276Z,15.00
2022-10-13T23:23:45.997Z,15.00
2022-10-13T23:26:16.065Z,14.90
2022-10-13T23:28:43.184Z,14.90
2022-10-13T23:31:15.440Z,14.80
2022-10-13T23:33:42.828Z,14.80
2022-10-13T23:36:14.845Z,14.80
2022-10-13T23:38:41.687Z,14.80
2022-10-13T23:41:12.013Z,14.80
2022-10-13T23:43:40.065Z,14.90
2022-10-13T23:46:07.893Z,14.90
2022-10-13T23:48:34.931Z,15.00
2022-10-13T23:51:15.270Z,15.00
2022-10-13T23:53:42.879Z,14.90
2022-10-13T23:56:11.134Z,15.00
2022-10-13T23:58:40.047Z,14.90
